Time;durP1;ratioP1;P1;durP2;ratioP2;P2;SDS_P1;SDS_P2;PMS_P1;PMS_P2;Temp;Humidity;BMP_temperature;BMP_pressure;BME280_temperature;BME280_humidity;BME280_pressure;Samples;Min_cycle;Max_cycle;Signal;HPM_P1;HPM_P2
2022/02/11 00:08:04;;;;;;;20.67;3.90;;;;;;;;;;4301834;33;20072;-69
2022/02/11 00:10:29;;;;;;;;;;;;;;;;;;4301925;33;20060;-69
2022/02/11 00:12:55;;;;;;;15.78;3.22;;;;;;;;;;4301249;33;20356;-69
2022/02/11 00:18:04;;;;;;;15.57;3.08;;;;;;;;;;4301720;33;19971;-69
2022/02/11 00:20:29;;;;;;;13.00;2.92;;;;;;;;;;4302652;33;20115;-70
2022/02/11 00:22:55;;;;;;;;;;;;;;;;;;4301643;33;20366;-69
2022/02/11 00:25:21;;;;;;;14.62;3.02;;;;;;;;;;4300988;33;19991;-69
2022/02/11 00:35:40;;;;;;;14.38;3.40;;;;;;;;;;4302028;33;20055;-68
2022/02/11 00:37:58;;;;;;;13.90;2.87;;;;;;;;;;4299973;33;20068;-69
2022/02/11 00:45:51;;;;;;;18.52;3.47;;;;;;;;;;4301343;33;20067;-71
2022/02/11 01:02:20;;;;;;;21.52;3.78;;;;;;;;;;4300683;33;20063;-69
2022/02/11 01:04:46;;;;;;;21.35;4.15;;;;;;;;;;4303147;33;20301;-70
2022/02/11 01:07:11;;;;;;;;;;;;;;;;;;4303668;33;20095;-69
2022/02/11 01:09:38;;;;;;;19.95;3.40;;;;;;;;;;4301771;33;19971;-69
2022/02/11 01:12:05;;;;;;;16.08;3.10;;;;;;;;;;4303420;33;20426;-70
2022/02/11 01:14:34;;;;;;;14.63;4.45;;;;;;;;;;4303230;33;20055;-69
2022/02/11 01:17:09;;;;;;;17.00;3.08;;;;;;;;;;4303579;33;20088;-69
2022/02/11 01:20:14;;;;;;;20.75;3.58;;;;;;;;;;4299565;33;20051;-70
2022/02/11 01:44:08;;;;;;;19.30;5.22;;;;;;;;;;4288923;33;20052;-80
2022/02/11 01:49:46;;;;;;;23.35;3.70;;;;;;;;;;4288700;33;20071;-79
2022/02/11 02:04:14;;;;;;;19.00;4.12;;;;;;;;;;4288591;33;20496;-80
2022/02/11 02:08:48;;;;;;;18.98;5.22;;;;;;;;;;4274224;33;20037;-80
2022/02/11 02:30:05;;;;;;;16.45;3.42;;;;;;;;;;4266735;33;20327;-81
2022/02/11 02:56:47;;;;;;;20.17;3.58;;;;;;;;;;4287026;33;20040;-80
2022/02/11 03:00:10;;;;;;;20.45;3.15;;;;;;;;;;4298784;33;20017;-80
2022/02/11 03:50:34;;;;;;;33.33;5.15;;;;;;;;;;4287192;33;20072;-80
2022/02/11 03:56:18;;;;;;;23.90;4.55;;;;;;;;;;4296087;33;20465;-81
2022/02/11 04:21:58;;;;;;;25.90;4.43;;;;;;;;;;4289484;33;20407;-82
2022/02/11 04:56:05;;;;;;;18.60;4.07;;;;;;;;;;4289482;33;20088;-81
2022/02/11 05:01:18;;;;;;;26.48;4.18;;;;;;;;;;4289447;33;20081;-80
2022/02/11 05:03:46;;;;;;;25.88;3.10;;;;;;;;;;4289410;33;20091;-82
2022/02/11 05:06:22;;;;;;;22.85;5.10;;;;;;;;;;4287867;33;20096;-81
2022/02/11 05:09:02;;;;;;;18.12;3.67;;;;;;;;;;4289576;33;20019;-81
2022/02/11 05:11:37;;;;;;;18.25;4.30;;;;;;;;;;4288068;33;20021;-82
2022/02/11 05:14:03;;;;;;;26.40;4.70;;;;;;;;;;4289551;33;20021;-82
2022/02/11 05:16:30;;;;;;;;;;;;;;;;;;4289578;33;20430;-82
2022/02/11 05:18:56;;;;;;;22.37;4.10;;;;;;;;;;4288990;33;20360;-82
2022/02/11 05:21:26;;;;;;;;;;;;;;;;;;4289631;33;20034;-81
2022/02/11 05:23:58;;;;;;;31.08;4.97;;;;;;;;;;4289389;33;19945;-82
2022/02/11 05:26:41;;;;;;;40.95;4.87;;;;;;;;;;4289841;33;20084;-84
2022/02/11 05:32:18;;;;;;;22.75;4.62;;;;;;;;;;4288601;33;20084;-84
2022/02/11 05:37:57;;;;;;;28.80;4.80;;;;;;;;;;4275234;33;20161;-81
2022/02/11 05:40:36;;;;;;;29.00;5.20;;;;;;;;;;4292089;33;20067;-81
2022/02/11 05:43:10;;;;;;;22.77;3.80;;;;;;;;;;4290836;33;20025;-81
2022/02/11 05:45:53;;;;;;;;;;;;;;;;;;;;;
2022/02/11 05:54:50;;;;;;;14.32;3.75;;;;;;;;;;4250543;33;20034;-80
2022/02/11 06:00:30;;;;;;;16.48;4.37;;;;;;;;;;4254254;33;20093;-80
2022/02/11 06:25:48;;;;;;;34.63;5.47;;;;;;;;;;4495755;31;20054;-83
2022/02/11 06:28:59;;;;;;;;;;;;;;;;;;;;;
2022/02/11 06:31:50;;;;;;;24.15;3.28;;;;;;;;;;4496420;32;20023;-81
2022/02/11 06:40:51;;;;;;;27.62;4.70;;;;;;;;;;4445045;32;20445;-79
2022/02/11 06:43:22;;;;;;;19.42;3.53;;;;;;;;;;4431181;32;20037;-78
2022/02/11 06:46:03;;;;;;;;;;;;;;;;;;;;;
2022/02/11 06:48:36;;;;;;;24.10;4.60;;;;;;;;;;4464829;32;20025;-81
2022/02/11 06:51:04;;;;;;;21.83;4.20;;;;;;;;;;4450912;32;20047;-80
2022/02/11 06:53:36;;;;;;;19.55;4.47;;;;;;;;;;4450302;32;20052;-80
2022/02/11 06:56:13;;;;;;;31.17;4.50;;;;;;;;;;4449429;32;20017;-81
2022/02/11 06:58:38;;;;;;;23.27;4.40;;;;;;;;;;4449970;32;20017;-81
2022/02/11 07:01:08;;;;;;;;;;;;;;;;;;4464556;32;20073;-79
2022/02/11 07:03:54;;;;;;;21.45;4.87;;;;;;;;;;4464371;32;20280;-82
2022/02/11 07:06:38;;;;;;;22.20;4.87;;;;;;;;;;4450269;32;20017;-81
2022/02/11 07:09:26;;;;;;;19.83;4.43;;;;;;;;;;4451520;32;20051;-82
2022/02/11 07:12:17;;;;;;;15.35;4.15;;;;;;;;;;4438128;32;20357;-82
2022/02/11 07:14:42;;;;;;;18.25;3.05;;;;;;;;;;4449979;32;20307;-79
2022/02/11 07:19:53;;;;;;;13.73;4.45;;;;;;;;;;4458044;32;19964;-80
2022/02/11 07:22:19;;;;;;;;;;;;;;;;;;4463813;32;20366;-81
2022/02/11 07:24:47;;;;;;;27.23;4.03;;;;;;;;;;4460921;32;19954;-81
2022/02/11 07:27:15;;;;;;;19.05;4.95;;;;;;;;;;4461918;32;20021;-81
2022/02/11 07:29:41;;;;;;;19.30;4.15;;;;;;;;;;4450041;32;20388;-84
2022/02/11 07:32:06;;;;;;;;;;;;;;;;;;4464348;32;20465;-83
2022/02/11 07:34:40;;;;;;;25.37;5.00;;;;;;;;;;4463272;32;19940;-82
2022/02/11 07:37:12;;;;;;;25.83;4.43;;;;;;;;;;4453907;32;20437;-82
2022/02/11 07:39:47;;;;;;;21.27;4.47;;;;;;;;;;4453944;32;20116;-81
2022/02/11 07:42:13;;;;;;;20.65;5.05;;;;;;;;;;4453728;32;20030;-84
2022/02/11 07:44:38;;;;;;;25.25;4.18;;;;;;;;;;4452214;32;20022;-81
2022/02/11 07:47:32;;;;;;;;;;;;;;;;;;4453518;32;20139;-83
2022/02/11 07:49:59;;;;;;;24.17;4.22;;;;;;;;;;4451429;32;19943;-83
2022/02/11 07:52:25;;;;;;;21.33;3.03;;;;;;;;;;4453614;32;20021;-81
2022/02/11 07:54:52;;;;;;;;;;;;;;;;;;4453788;32;20021;-82
2022/02/11 07:57:18;;;;;;;21.35;3.87;;;;;;;;;;4453022;32;20409;-80
2022/02/11 07:59:45;;;;;;;;;;;;;;;;;;4453324;32;20033;-81
2022/02/11 08:02:23;;;;;;;27.25;3.70;;;;;;;;;;4453185;32;19955;-83
2022/02/11 08:04:51;;;;;;;22.90;3.80;;;;;;;;;;4453679;32;20058;-83
2022/02/11 08:07:37;;;;;;;20.60;4.43;;;;;;;;;;4468866;32;20025;-82
2022/02/11 08:10:03;;;;;;;23.65;4.53;;;;;;;;;;4469301;32;20432;-82
2022/02/11 08:12:29;;;;;;;;;;;;;;;;;;4469379;32;20021;-82
2022/02/11 08:15:03;;;;;;;24.37;4.10;;;;;;;;;;4453689;32;19932;-83
2022/02/11 08:17:39;;;;;;;23.48;5.12;;;;;;;;;;4454408;32;20319;-83
2022/02/11 08:20:07;;;;;;;21.27;4.62;;;;;;;;;;4454573;32;20009;-83
2022/02/11 08:22:42;;;;;;;20.75;5.57;;;;;;;;;;4454328;32;20067;-81
2022/02/11 08:25:10;;;;;;;34.55;5.50;;;;;;;;;;4468129;32;20064;-81
2022/02/11 08:27:44;;;;;;;20.73;4.85;;;;;;;;;;4454662;32;20049;-83
2022/02/11 08:30:23;;;;;;;34.33;4.95;;;;;;;;;;4454494;32;20089;-82
2022/02/11 08:33:07;;;;;;;;;;;;;;;;;;;;;
2022/02/11 08:35:39;;;;;;;22.23;4.25;;;;;;;;;;4467390;32;20477;-82
2022/02/11 08:38:10;;;;;;;27.10;4.70;;;;;;;;;;4456316;32;20013;-82
2022/02/11 08:40:37;;;;;;;23.42;3.37;;;;;;;;;;4462546;32;20264;-81
2022/02/11 08:43:04;;;;;;;17.23;4.20;;;;;;;;;;4448173;32;20025;-82
2022/02/11 08:45:31;;;;;;;16.92;3.17;;;;;;;;;;4454071;32;20049;-82
2022/02/11 08:48:02;;;;;;;14.25;2.80;;;;;;;;;;4450146;32;20021;-81
2022/02/11 08:50:34;;;;;;;17.25;3.55;;;;;;;;;;4455731;32;20406;-79
2022/02/11 08:52:59;;;;;;;23.83;3.45;;;;;;;;;;4469510;32;20399;-81
2022/02/11 08:55:57;;;;;;;;;;;;;;;;;;4469847;32;20227;-80
2022/02/11 08:58:19;;;;;;;22.95;3.45;;;;;;;;;;4468268;32;19967;-80
2022/02/11 09:00:52;;;;;;;24.52;3.15;;;;;;;;;;4452654;32;20034;-80
2022/02/11 09:03:19;;;;;;;26.23;4.93;;;;;;;;;;4453632;32;20060;-82
2022/02/11 09:05:50;;;;;;;17.02;4.07;;;;;;;;;;4452919;32;20092;-81
2022/02/11 09:08:27;;;;;;;17.45;4.28;;;;;;;;;;4466527;32;20090;-81
2022/02/11 09:10:58;;;;;;;19.12;4.68;;;;;;;;;;4452172;32;20060;-83
2022/02/11 09:13:50;;;;;;;16.60;4.12;;;;;;;;;;4452847;32;20080;-82
2022/02/11 09:17:12;;;;;;;15.85;3.10;;;;;;;;;;4453160;32;20025;-80
2022/02/11 09:23:20;;;;;;;22.42;3.33;;;;;;;;;;4337998;32;20117;-81
2022/02/11 09:25:45;;;;;;;13.07;3.72;;;;;;;;;;4389105;32;20039;-81
2022/02/11 09:28:19;;;;;;;;;;;;;;;;;;4388118;32;20042;-81
2022/02/11 09:31:11;;;;;;;19.00;3.78;;;;;;;;;;4402235;32;19938;-80
2022/02/11 09:36:33;;;;;;;12.95;2.65;;;;;;;;;;4403765;32;20109;-81
2022/02/11 09:39:06;;;;;;;17.20;4.05;;;;;;;;;;4403642;32;20373;-81
2022/02/11 09:41:38;;;;;;;26.40;5.50;;;;;;;;;;4391536;32;20071;-81
2022/02/11 09:44:24;;;;;;;16.70;3.55;;;;;;;;;;4435799;32;20040;-81
2022/02/11 09:47:24;;;;;;;10.60;2.83;;;;;;;;;;4452009;32;20052;-81
2022/02/11 09:50:43;;;;;;;17.85;3.62;;;;;;;;;;4427295;32;20427;-81
2022/02/11 09:56:30;;;;;;;20.70;3.45;;;;;;;;;;4356645;32;20444;-82
2022/02/11 09:59:23;;;;;;;16.60;3.80;;;;;;;;;;4372846;32;20205;-81
2022/02/11 10:02:01;;;;;;;10.52;3.28;;;;;;;;;;4372759;32;20056;-83
2022/02/11 10:04:35;;;;;;;12.13;2.70;;;;;;;;;;4372928;32;20085;-83
2022/02/11 10:07:24;;;;;;;13.93;3.62;;;;;;;;;;4395150;32;20028;-82
2022/02/11 10:09:49;;;;;;;18.27;3.33;;;;;;;;;;4455053;32;20041;-80
2022/02/11 10:12:15;;;;;;;;;;;;;;;;;;4466927;32;20052;-83
2022/02/11 10:14:43;;;;;;;16.27;3.42;;;;;;;;;;4451539;32;20312;-81
2022/02/11 10:17:28;;;;;;;18.87;3.25;;;;;;;;;;4466299;32;20025;-81
2022/02/11 10:20:05;;;;;;;16.52;3.20;;;;;;;;;;4466787;32;20024;-82
2022/02/11 10:22:30;;;;;;;23.27;3.92;;;;;;;;;;4452596;32;20017;-82
2022/02/11 10:24:56;;;;;;;;;;;;;;;;;;4466584;32;20106;-81
2022/02/11 10:27:23;;;;;;;17.45;3.22;;;;;;;;;;4452574;32;19966;-81
2022/02/11 10:30:02;;;;;;;14.00;3.33;;;;;;;;;;4452502;32;20045;-83
2022/02/11 10:33:04;;;;;;;;;;;;;;;;;;;;;
2022/02/11 10:35:35;;;;;;;14.90;3.53;;;;;;;;;;4466737;32;20060;-81
2022/02/11 10:41:53;;;;;;;;;;;;;;;;;;;;;
2022/02/11 10:44:55;;;;;;;22.83;3.72;;;;;;;;;;4420445;32;20049;-82
2022/02/11 10:47:36;;;;;;;26.15;4.00;;;;;;;;;;4437349;32;20056;-81
2022/02/11 10:50:19;;;;;;;14.75;4.78;;;;;;;;;;4437170;32;20017;-81
2022/02/11 10:56:12;;;;;;;23.40;4.20;;;;;;;;;;4440204;32;20096;-83
2022/02/11 10:58:39;;;;;;;18.55;3.12;;;;;;;;;;4442575;32;20075;-82
2022/02/11 11:01:06;;;;;;;13.48;2.70;;;;;;;;;;4450487;32;20037;-82
2022/02/11 11:06:55;;;;;;;16.42;2.47;;;;;;;;;;4447592;32;19939;-82
2022/02/11 11:09:25;;;;;;;11.70;2.55;;;;;;;;;;4433479;32;20033;-80
2022/02/11 11:11:51;;;;;;;18.67;3.85;;;;;;;;;;4453871;32;20073;-81
2022/02/11 11:14:40;;;;;;;16.30;2.70;;;;;;;;;;4453302;32;20025;-82
2022/02/11 11:17:05;;;;;;;13.43;2.95;;;;;;;;;;4453700;32;20080;-82
2022/02/11 11:19:30;;;;;;;;;;;;;;;;;;4439080;32;20414;-81
2022/02/11 11:22:14;;;;;;;8.63;2.00;;;;;;;;;;4453684;32;19940;-81
2022/02/11 11:25:12;;;;;;;17.42;2.92;;;;;;;;;;4439207;32;20045;-80
2022/02/11 11:27:40;;;;;;;11.88;2.35;;;;;;;;;;4453825;32;20075;-81
2022/02/11 11:30:59;;;;;;;26.73;4.87;;;;;;;;;;4439232;32;20196;-80
2022/02/11 11:33:21;;;;;;;11.05;2.17;;;;;;;;;;4450464;32;20021;-82
2022/02/11 11:39:23;;;;;;;13.32;2.37;;;;;;;;;;4440254;32;20064;-81
2022/02/11 11:42:13;;;;;;;5.57;1.90;;;;;;;;;;4448316;32;20069;-81
2022/02/11 11:45:00;;;;;;;9.25;2.22;;;;;;;;;;4468669;32;20056;-80
2022/02/11 11:47:43;;;;;;;12.88;2.20;;;;;;;;;;4468729;32;20081;-82
2022/02/11 11:56:43;;;;;;;12.52;2.37;;;;;;;;;;4468624;32;20062;-81
2022/02/11 12:02:02;;;;;;;7.80;2.15;;;;;;;;;;4468727;32;20035;-82
2022/02/11 12:08:12;;;;;;;5.07;1.70;;;;;;;;;;4468129;32;20044;-83
2022/02/11 12:13:44;;;;;;;16.65;4.05;;;;;;;;;;4433406;32;20032;-81
2022/02/11 12:16:10;;;;;;;10.13;2.35;;;;;;;;;;4450697;32;20418;-81
2022/02/11 12:18:52;;;;;;;18.10;2.05;;;;;;;;;;4465718;32;20412;-82
2022/02/11 12:21:40;;;;;;;9.93;2.35;;;;;;;;;;4468949;32;20005;-85
2022/02/11 12:32:58;;;;;;;13.00;2.40;;;;;;;;;;4468541;32;20023;-82
2022/02/11 12:35:27;;;;;;;15.27;3.10;;;;;;;;;;4467800;32;20079;-83
2022/02/11 12:38:01;;;;;;;11.15;1.90;;;;;;;;;;4467779;32;20029;-83
2022/02/11 12:40:56;;;;;;;21.58;2.75;;;;;;;;;;4468426;32;20013;-82
2022/02/11 12:43:44;;;;;;;13.75;2.58;;;;;;;;;;4398219;32;20035;-82
2022/02/11 12:46:14;;;;;;;17.10;2.47;;;;;;;;;;4468341;32;20024;-82
2022/02/11 12:48:41;;;;;;;13.45;3.10;;;;;;;;;;4467664;32;20041;-83
2022/02/11 12:51:25;;;;;;;13.57;2.83;;;;;;;;;;4468573;32;20104;-82
2022/02/11 12:54:13;;;;;;;14.75;3.45;;;;;;;;;;4468140;32;20025;-79
2022/02/11 13:00:14;;;;;;;16.95;3.42;;;;;;;;;;4443322;32;20100;-82
2022/02/11 13:02:47;;;;;;;10.90;3.30;;;;;;;;;;4389803;32;20038;-80
2022/02/11 13:05:20;;;;;;;13.05;2.95;;;;;;;;;;4392913;32;20015;-81
2022/02/11 13:08:04;;;;;;;16.83;2.78;;;;;;;;;;4463962;32;20021;-80
2022/02/11 13:11:04;;;;;;;18.20;2.83;;;;;;;;;;4455269;32;20017;-82
2022/02/11 13:13:41;;;;;;;22.75;3.62;;;;;;;;;;4469278;32;20058;-81
2022/02/11 13:16:23;;;;;;;14.05;2.80;;;;;;;;;;4453565;32;20545;-81
2022/02/11 13:18:54;;;;;;;21.65;3.58;;;;;;;;;;4467668;32;20021;-81
2022/02/11 13:21:32;;;;;;;17.87;3.80;;;;;;;;;;4453051;32;20033;-81
2022/02/11 13:24:03;;;;;;;24.35;3.35;;;;;;;;;;4449931;32;20033;-80
2022/02/11 13:26:31;;;;;;;18.50;2.80;;;;;;;;;;4451712;32;20501;-81
2022/02/11 13:29:17;;;;;;;23.65;3.15;;;;;;;;;;4449724;32;20117;-81
2022/02/11 13:32:01;;;;;;;27.17;2.80;;;;;;;;;;4450660;32;20370;-81
2022/02/11 13:34:35;;;;;;;15.80;2.85;;;;;;;;;;4451470;32;20018;-80
2022/02/11 13:37:32;;;;;;;17.15;3.30;;;;;;;;;;4451883;32;20384;-80
2022/02/11 13:40:19;;;;;;;11.98;2.60;;;;;;;;;;4450369;32;20390;-80
2022/02/11 13:42:47;;;;;;;;;;;;;;;;;;4451064;32;20049;-80
2022/02/11 13:45:29;;;;;;;10.80;2.60;;;;;;;;;;4450840;32;19936;-81
2022/02/11 13:48:17;;;;;;;10.73;2.87;;;;;;;;;;4449923;32;20005;-81
2022/02/11 13:51:05;;;;;;;7.43;2.22;;;;;;;;;;4448247;32;20044;-82
2022/02/11 13:53:56;;;;;;;15.80;2.72;;;;;;;;;;4450439;32;20021;-81
2022/02/11 13:56:59;;;;;;;13.90;2.67;;;;;;;;;;4451361;32;20362;-81
2022/02/11 14:00:05;;;;;;;10.48;2.37;;;;;;;;;;4451583;32;20025;-81
2022/02/11 14:02:46;;;;;;;12.00;2.37;;;;;;;;;;4450261;32;20358;-81
2022/02/11 14:05:29;;;;;;;11.75;2.67;;;;;;;;;;4444801;32;20037;-82
2022/02/11 14:08:02;;;;;;;20.70;3.17;;;;;;;;;;4435597;32;20021;-81
2022/02/11 14:10:50;;;;;;;14.13;2.45;;;;;;;;;;4434417;32;20017;-81
2022/02/11 14:13:33;;;;;;;10.20;2.47;;;;;;;;;;4436640;32;20127;-82
2022/02/11 14:16:45;;;;;;;7.30;2.25;;;;;;;;;;4439260;32;20347;-82
2022/02/11 14:19:38;;;;;;;12.30;2.50;;;;;;;;;;4436815;32;20362;-81
2022/02/11 14:22:03;;;;;;;9.75;2.03;;;;;;;;;;4442452;32;20029;-81
2022/02/11 14:24:31;;;;;;;;;;;;;;;;;;4436604;32;20499;-79
2022/02/11 14:30:06;;;;;;;7.10;1.95;;;;;;;;;;4436127;32;20018;-81
2022/02/11 14:35:19;;;;;;;11.95;2.67;;;;;;;;;;4430773;32;20042;-82
2022/02/11 14:38:07;;;;;;;12.40;2.45;;;;;;;;;;4435655;32;20078;-80
2022/02/11 14:44:08;;;;;;;10.05;2.30;;;;;;;;;;4435970;32;20044;-80
2022/02/11 14:46:35;;;;;;;8.23;2.12;;;;;;;;;;4436215;32;20070;-81
2022/02/11 14:49:06;;;;;;;13.15;3.03;;;;;;;;;;4436820;32;20422;-80
2022/02/11 14:51:34;;;;;;;13.20;2.22;;;;;;;;;;4438126;32;20018;-80
2022/02/11 14:54:03;;;;;;;11.05;2.60;;;;;;;;;;4438459;32;20085;-78
2022/02/11 14:56:42;;;;;;;15.32;2.90;;;;;;;;;;4438918;32;20029;-80
2022/02/11 14:59:08;;;;;;;14.65;2.87;;;;;;;;;;4439335;32;20024;-80
2022/02/11 15:05:08;;;;;;;13.43;2.65;;;;;;;;;;4436231;32;19937;-81
2022/02/11 15:07:48;;;;;;;;;;;;;;;;;;;;;
2022/02/11 15:10:27;;;;;;;;;;;;;;;;;;;;;
2022/02/11 15:15:41;;;;;;;15.40;3.20;;;;;;;;;;4430127;32;20041;-82
2022/02/11 15:18:06;;;;;;;;;;;;;;;;;;4438448;32;20430;-81
2022/02/11 15:20:43;;;;;;;23.58;3.12;;;;;;;;;;4438484;32;20239;-80
2022/02/11 15:23:19;;;;;;;15.38;2.78;;;;;;;;;;4449999;32;20033;-80
2022/02/11 15:26:03;;;;;;;12.35;2.75;;;;;;;;;;4449349;32;20071;-81
2022/02/11 15:31:35;;;;;;;13.93;2.58;;;;;;;;;;4378040;32;20444;-79
2022/02/11 15:34:07;;;;;;;16.08;3.08;;;;;;;;;;4449355;32;20415;-80
2022/02/11 15:36:38;;;;;;;18.05;4.25;;;;;;;;;;4454373;32;20018;-80
2022/02/11 15:39:09;;;;;;;26.90;4.03;;;;;;;;;;4452604;32;20103;-81
2022/02/11 15:42:09;;;;;;;;;;;;;;;;;;;;;
2022/02/11 15:45:08;;;;;;;19.00;3.45;;;;;;;;;;4453318;32;20374;-79
2022/02/11 15:47:50;;;;;;;13.85;2.95;;;;;;;;;;4451342;32;20336;-79
2022/02/11 15:57:25;;;;;;;25.13;3.23;;;;;;;;;;4404979;32;20011;-80
2022/02/11 16:00:08;;;;;;;13.88;3.33;;;;;;;;;;4399372;32;20122;-80
2022/02/11 16:03:05;;;;;;;21.58;3.33;;;;;;;;;;4408206;32;20018;-81
2022/02/11 16:05:38;;;;;;;13.80;2.30;;;;;;;;;;4418605;32;20038;-79
2022/02/11 16:08:03;;;;;;;10.25;2.65;;;;;;;;;;4420548;32;20067;-80
2022/02/11 16:10:28;;;;;;;;;;;;;;;;;;4432824;32;20053;-79
2022/02/11 16:13:15;;;;;;;14.32;3.37;;;;;;;;;;4452896;32;19937;-80
2022/02/11 16:15:57;;;;;;;12.15;2.25;;;;;;;;;;4451587;32;20518;-79
2022/02/11 16:19:15;;;;;;;9.45;2.22;;;;;;;;;;4461253;32;20026;-80
2022/02/11 16:21:41;;;;;;;15.02;3.37;;;;;;;;;;4398938;32;20047;-80
2022/02/11 16:24:07;;;;;;;;;;;;;;;;;;4468597;32;20029;-80
2022/02/11 16:26:49;;;;;;;15.77;3.67;;;;;;;;;;4466519;32;19991;-79
2022/02/11 16:29:33;;;;;;;15.43;4.00;;;;;;;;;;4467985;32;20136;-79
2022/02/11 16:32:19;;;;;;;11.75;4.18;;;;;;;;;;4454094;32;20021;-78
2022/02/11 16:35:18;;;;;;;;;;;;;;;;;;;;;
2022/02/11 16:37:46;;;;;;;20.70;4.20;;;;;;;;;;4468368;32;20362;-80
2022/02/11 16:40:14;;;;;;;11.30;3.08;;;;;;;;;;4467865;32;20029;-80
2022/02/11 16:43:06;;;;;;;9.27;2.85;;;;;;;;;;4453836;32;20044;-80
2022/02/11 16:45:42;;;;;;;17.70;3.83;;;;;;;;;;4466576;32;20109;-80
2022/02/11 16:48:49;;;;;;;12.98;2.90;;;;;;;;;;4467038;32;20033;-80
2022/02/11 16:54:30;;;;;;;25.33;5.07;;;;;;;;;;4387187;32;20059;-80
2022/02/11 16:56:56;;;;;;;31.75;7.35;;;;;;;;;;4386944;32;20188;-80
2022/02/11 16:59:23;;;;;;;;;;;;;;;;;;4441857;32;20068;-79
2022/02/11 17:02:00;;;;;;;;;;;;;;;;;;4451053;32;19977;-80
2022/02/11 17:04:57;;;;;;;;;;;;;;;;;;;;;
2022/02/11 17:10:44;;;;;;;12.25;3.62;;;;;;;;;;4468100;32;20052;-79
2022/02/11 17:16:55;;;;;;;13.73;3.85;;;;;;;;;;4419208;32;20064;-80
2022/02/11 17:19:26;;;;;;;;;;;;;;;;;;4411371;32;20064;-79
2022/02/11 17:22:02;;;;;;;13.38;4.43;;;;;;;;;;4460629;32;19965;-79
2022/02/11 17:24:36;;;;;;;30.83;5.80;;;;;;;;;;4468136;32;20120;-80
2022/02/11 17:27:07;;;;;;;19.05;4.22;;;;;;;;;;4452575;32;20021;-82
2022/02/11 17:42:19;;;;;;;16.87;5.28;;;;;;;;;;4388852;32;20019;-82
2022/02/11 17:45:15;;;;;;;17.10;4.37;;;;;;;;;;4359180;32;20062;-81
2022/02/11 17:47:46;;;;;;;18.35;4.93;;;;;;;;;;4392862;32;20018;-80
2022/02/11 17:50:32;;;;;;;36.22;6.47;;;;;;;;;;4404678;32;20101;-80
2022/02/11 17:56:15;;;;;;;16.73;4.37;;;;;;;;;;4380632;32;20060;-81
2022/02/11 17:59:49;;;;;;;;;;;;;;;;;;;;;
2022/02/11 18:07:43;;;;;;;33.83;7.03;;;;;;;;;;4403625;32;20092;-80
2022/02/11 18:10:23;;;;;;;28.40;6.53;;;;;;;;;;4421833;32;20033;-80
2022/02/11 18:13:19;;;;;;;;;;;;;;;;;;;;;
2022/02/11 18:21:57;;;;;;;17.80;5.68;;;;;;;;;;4437118;32;20028;-81
2022/02/11 18:24:49;;;;;;;28.08;6.10;;;;;;;;;;4452671;32;20041;-81
2022/02/11 18:27:14;;;;;;;35.75;8.68;;;;;;;;;;4465918;32;20081;-81
2022/02/11 18:29:45;;;;;;;;;;;;;;;;;;4449993;32;20049;-81
2022/02/11 18:32:13;;;;;;;30.33;7.35;;;;;;;;;;4451681;32;19941;-80
2022/02/11 18:35:14;;;;;;;23.05;8.75;;;;;;;;;;4450026;32;20397;-81
2022/02/11 18:37:43;;;;;;;30.25;7.70;;;;;;;;;;4449088;32;20083;-81
2022/02/11 18:40:29;;;;;;;13.57;6.57;;;;;;;;;;4451026;32;20022;-80
2022/02/11 18:43:05;;;;;;;31.67;8.27;;;;;;;;;;4450044;32;20116;-81
2022/02/11 18:46:06;;;;;;;19.77;6.53;;;;;;;;;;4448390;32;20048;-81
2022/02/11 18:48:58;;;;;;;;;;;;;;;;;;;;;
2022/02/11 18:51:59;;;;;;;42.17;9.15;;;;;;;;;;4451887;32;20025;-81
2022/02/11 18:54:50;;;;;;;39.63;8.80;;;;;;;;;;4450220;32;20064;-81
2022/02/11 19:00:56;;;;;;;21.48;6.03;;;;;;;;;;4429585;32;20033;-81
2022/02/11 19:03:30;;;;;;;46.08;10.88;;;;;;;;;;4451556;32;20025;-81
2022/02/11 19:06:22;;;;;;;41.15;11.05;;;;;;;;;;4450446;32;20411;-82
2022/02/11 19:09:15;;;;;;;23.20;7.80;;;;;;;;;;4446428;32;20051;-82
2022/02/11 19:12:07;;;;;;;;;;;;;;;;;;;;;
2022/02/11 19:14:36;;;;;;;30.08;10.30;;;;;;;;;;4446558;32;20044;-80
2022/02/11 19:20:21;;;;;;;25.35;8.20;;;;;;;;;;4442866;32;20025;-81
2022/02/11 19:23:01;;;;;;;23.92;10.10;;;;;;;;;;4451302;32;20446;-80
2022/02/11 19:25:44;;;;;;;;;;;;;;;;;;;;;
2022/02/11 19:28:35;;;;;;;25.08;8.82;;;;;;;;;;4450576;32;20438;-81
2022/02/11 19:34:23;;;;;;;28.35;9.18;;;;;;;;;;4424591;32;20046;-81
2022/02/11 19:40:15;;;;;;;31.40;7.30;;;;;;;;;;4420558;32;20030;-81
2022/02/11 19:42:52;;;;;;;27.25;7.25;;;;;;;;;;4427371;32;20040;-81
2022/02/11 19:45:54;;;;;;;;;;;;;;;;;;;;;
2022/02/11 19:48:38;;;;;;;16.62;6.05;;;;;;;;;;4453209;32;20033;-81
2022/02/11 20:00:42;;;;;;;13.70;6.50;;;;;;;;;;4392096;32;20034;-81
2022/02/11 20:03:30;;;;;;;;;;;;;;;;;;;;;
2022/02/11 20:05:59;;;;;;;19.10;7.12;;;;;;;;;;4454619;32;20056;-81
2022/02/11 20:08:41;;;;;;;18.27;7.47;;;;;;;;;;4451419;32;20033;-81
2022/02/11 20:11:54;;;;;;;23.65;6.97;;;;;;;;;;4452141;32;20097;-81
2022/02/11 20:14:33;;;;;;;28.92;10.18;;;;;;;;;;4448167;32;20045;-81
2022/02/11 20:17:20;;;;;;;26.92;8.27;;;;;;;;;;4420340;32;20033;-81
2022/02/11 20:20:23;;;;;;;16.20;6.15;;;;;;;;;;4453260;32;20033;-81
2022/02/11 20:23:45;;;;;;;23.83;8.05;;;;;;;;;;4453441;32;20053;-81
2022/02/11 20:26:49;;;;;;;;;;;;;;;;;;;;;
2022/02/11 20:29:57;;;;;;;;;;;;;;;;;;;;;
2022/02/11 20:32:54;;;;;;;28.65;7.65;;;;;;;;;;4428881;32;20431;-81
2022/02/11 20:35:29;;;;;;;20.88;8.02;;;;;;;;;;4424306;32;20029;-81
2022/02/11 20:38:22;;;;;;;23.83;8.35;;;;;;;;;;4436514;32;20025;-82
2022/02/11 20:41:14;;;;;;;15.32;7.18;;;;;;;;;;4431672;32;20022;-81
2022/02/11 20:43:50;;;;;;;19.45;8.57;;;;;;;;;;4436244;32;20059;-80
2022/02/11 20:52:36;;;;;;;;;;;;;;;;;;;;;
2022/02/11 20:55:08;;;;;;;25.00;10.25;;;;;;;;;;4372996;32;20084;-81
2022/02/11 20:57:36;;;;;;;24.73;9.88;;;;;;;;;;4374567;32;20189;-81
2022/02/11 21:00:05;;;;;;;19.35;9.23;;;;;;;;;;4398681;32;20069;-81
2022/02/11 21:02:33;;;;;;;21.67;9.93;;;;;;;;;;4436741;32;20086;-81
2022/02/11 21:05:01;;;;;;;24.20;10.90;;;;;;;;;;4435063;32;20022;-81
2022/02/11 21:07:26;;;;;;;28.10;10.20;;;;;;;;;;4436862;32;20135;-81
2022/02/11 21:10:03;;;;;;;;;;;;;;;;;;4437297;32;20037;-82
2022/02/11 21:12:28;;;;;;;23.40;10.80;;;;;;;;;;4436384;32;19962;-81
2022/02/11 21:14:53;;;;;;;;;;;;;;;;;;4436807;32;20022;-82
2022/02/11 21:17:19;;;;;;;20.50;9.13;;;;;;;;;;4436315;32;20302;-81
2022/02/11 21:19:51;;;;;;;;;;;;;;;;;;4436043;32;20025;-82
2022/02/11 21:22:45;;;;;;;20.00;9.05;;;;;;;;;;4437509;32;19968;-81
2022/02/11 21:25:15;;;;;;;28.58;10.20;;;;;;;;;;4389286;32;20471;-81
2022/02/11 21:27:50;;;;;;;22.55;10.52;;;;;;;;;;4432655;32;20044;-81
2022/02/11 21:30:16;;;;;;;20.23;11.57;;;;;;;;;;4443481;32;20069;-81
2022/02/11 21:32:44;;;;;;;;;;;;;;;;;;4453713;32;20017;-82
2022/02/11 21:35:18;;;;;;;21.67;10.48;;;;;;;;;;4453375;32;19931;-82
2022/02/11 21:37:44;;;;;;;31.23;10.65;;;;;;;;;;4467886;32;20390;-82
2022/02/11 21:40:09;;;;;;;;;;;;;;;;;;4452894;32;20047;-81
2022/02/11 21:43:27;;;;;;;27.13;11.52;;;;;;;;;;4467702;32;20341;-81
2022/02/11 21:45:37;;;;;;;19.83;10.98;;;;;;;;;;4457003;32;20078;-81
2022/02/11 21:48:02;;;;;;;;;;;;;;;;;;4453625;32;20398;-81
2022/02/11 21:50:36;;;;;;;33.55;10.90;;;;;;;;;;4452970;32;19932;-81
2022/02/11 21:53:08;;;;;;;26.48;12.70;;;;;;;;;;4451088;32;20385;-81
2022/02/11 21:59:02;;;;;;;27.05;14.95;;;;;;;;;;4442468;32;20134;-81
2022/02/11 22:01:27;;;;;;;;;;;;;;;;;;4453828;32;20354;-81
2022/02/11 22:07:00;;;;;;;37.65;12.93;;;;;;;;;;4403734;32;20163;-81
2022/02/11 22:09:48;;;;;;;31.58;12.13;;;;;;;;;;4407715;32;20153;-81
2022/02/11 22:25:19;;;;;;;24.85;11.50;;;;;;;;;;4343326;33;20071;-82
2022/02/11 22:28:06;;;;;;;21.75;11.73;;;;;;;;;;4298506;33;20086;-81
2022/02/11 23:06:03;;;;;;;;;;;;;;;;;;;;;
2022/02/11 23:51:39;;;;;;;26.98;11.02;;;;;;;;;;4378132;32;20103;-82
2022/02/11 23:54:46;;;;;;;;;;;;;;;;;;4408597;32;20031;-82
